sensor_id;sensor_type;location;lat;lon;timestamp;P1;durP1;ratioP1;P2;durP2;ratioP2
7213;SDS011;3648;50.614;13.830;2023-03-01T00:00:53;25.60;;;18.10;;
7213;SDS011;3648;50.614;13.830;2023-03-01T00:03:19;23.63;;;17.57;;
7213;SDS011;3648;50.614;13.830;2023-03-01T00:05:46;23.83;;;18.17;;
7213;SDS011;3648;50.614;13.830;2023-03-01T00:08:15;26.07;;;18.10;;
7213;SDS011;3648;50.614;13.830;2023-03-01T00:10:42;26.40;;;18.93;;
7213;SDS011;3648;50.614;13.830;2023-03-01T00:13:09;22.73;;;17.63;;
7213;SDS011;3648;50.614;13.830;2023-03-01T00:15:37;25.10;;;17.80;;
7213;SDS011;3648;50.614;13.830;2023-03-01T00:18:05;28.60;;;18.27;;
7213;SDS011;3648;50.614;13.830;2023-03-01T00:20:32;22.63;;;17.30;;
7213;SDS011;3648;50.614;13.830;2023-03-01T00:22:59;24.23;;;17.90;;
7213;SDS011;3648;50.614;13.830;2023-03-01T00:25:27;21.90;;;17.67;;
7213;SDS011;3648;50.614;13.830;2023-03-01T00:27:54;22.27;;;15.90;;
7213;SDS011;3648;50.614;13.830;2023-03-01T00:30:21;23.97;;;17.30;;
7213;SDS011;3648;50.614;13.830;2023-03-01T00:32:48;22.53;;;17.43;;
7213;SDS011;3648;50.614;13.830;2023-03-01T00:35:15;22.20;;;16.93;;
7213;SDS011;3648;50.614;13.830;2023-03-01T00:37:42;24.70;;;18.03;;
7213;SDS011;3648;50.614;13.830;2023-03-01T00:40:09;24.87;;;17.73;;
7213;SDS011;3648;50.614;13.830;2023-03-01T00:42:38;23.50;;;17.37;;
7213;SDS011;3648;50.614;13.830;2023-03-01T00:45:06;22.00;;;16.10;;
7213;SDS011;3648;50.614;13.830;2023-03-01T00:47:34;23.20;;;15.87;;
7213;SDS011;3648;50.614;13.830;2023-03-01T00:50:01;24.10;;;17.47;;
7213;SDS011;3648;50.614;13.830;2023-03-01T00:52:28;22.10;;;15.60;;
7213;SDS011;3648;50.614;13.830;2023-03-01T00:54:55;20.60;;;16.03;;
7213;SDS011;3648;50.614;13.830;2023-03-01T00:57:22;24.73;;;17.00;;
7213;SDS011;3648;50.614;13.830;2023-03-01T00:59:51;20.70;;;15.53;;
7213;SDS011;3648;50.614;13.830;2023-03-01T01:02:18;23.13;;;15.73;;
7213;SDS011;3648;50.614;13.830;2023-03-01T01:04:46;24.90;;;16.83;;
7213;SDS011;3648;50.614;13.830;2023-03-01T01:07:14;22.53;;;16.07;;
7213;SDS011;3648;50.614;13.830;2023-03-01T01:09:41;23.77;;;16.90;;
7213;SDS011;3648;50.614;13.830;2023-03-01T01:12:08;22.17;;;16.47;;
7213;SDS011;3648;50.614;13.830;2023-03-01T01:14:35;23.13;;;16.33;;
7213;SDS011;3648;50.614;13.830;2023-03-01T01:17:04;22.67;;;16.70;;
7213;SDS011;3648;50.614;13.830;2023-03-01T01:19:31;24.93;;;16.77;;
7213;SDS011;3648;50.614;13.830;2023-03-01T01:21:58;21.43;;;16.53;;
7213;SDS011;3648;50.614;13.830;2023-03-01T01:24:25;24.73;;;17.20;;
7213;SDS011;3648;50.614;13.830;2023-03-01T01:26:52;21.63;;;17.27;;
7213;SDS011;3648;50.614;13.830;2023-03-01T01:29:19;21.23;;;16.00;;
7213;SDS011;3648;50.614;13.830;2023-03-01T01:31:46;23.37;;;16.30;;
7213;SDS011;3648;50.614;13.830;2023-03-01T01:34:16;24.17;;;17.03;;
7213;SDS011;3648;50.614;13.830;2023-03-01T01:36:47;22.17;;;15.77;;
7213;SDS011;3648;50.614;13.830;2023-03-01T01:39:15;21.97;;;16.70;;
7213;SDS011;3648;50.614;13.830;2023-03-01T01:41:42;23.73;;;17.07;;
7213;SDS011;3648;50.614;13.830;2023-03-01T01:44:10;19.93;;;15.90;;
7213;SDS011;3648;50.614;13.830;2023-03-01T01:46:40;20.50;;;15.67;;
7213;SDS011;3648;50.614;13.830;2023-03-01T01:49:11;23.87;;;16.33;;
7213;SDS011;3648;50.614;13.830;2023-03-01T01:52:02;23.97;;;16.33;;
7213;SDS011;3648;50.614;13.830;2023-03-01T01:54:37;21.00;;;15.70;;
7213;SDS011;3648;50.614;13.830;2023-03-01T01:57:10;20.90;;;14.97;;
7213;SDS011;3648;50.614;13.830;2023-03-01T01:59:40;22.37;;;14.93;;
7213;SDS011;3648;50.614;13.830;2023-03-01T02:02:11;22.97;;;16.43;;
7213;SDS011;3648;50.614;13.830;2023-03-01T02:04:38;20.73;;;16.27;;
7213;SDS011;3648;50.614;13.830;2023-03-01T02:07:09;23.33;;;16.50;;
7213;SDS011;3648;50.614;13.830;2023-03-01T02:09:41;20.63;;;15.70;;
7213;SDS011;3648;50.614;13.830;2023-03-01T02:12:11;22.37;;;16.03;;
7213;SDS011;3648;50.614;13.830;2023-03-01T02:14:40;25.27;;;16.80;;
7213;SDS011;3648;50.614;13.830;2023-03-01T02:17:07;22.27;;;16.80;;
7213;SDS011;3648;50.614;13.830;2023-03-01T02:19:39;25.20;;;16.60;;
7213;SDS011;3648;50.614;13.830;2023-03-01T02:22:20;22.20;;;15.87;;
7213;SDS011;3648;50.614;13.830;2023-03-01T02:24:54;23.27;;;16.93;;
7213;SDS011;3648;50.614;13.830;2023-03-01T02:27:32;22.17;;;16.53;;
7213;SDS011;3648;50.614;13.830;2023-03-01T02:30:06;23.43;;;16.00;;
7213;SDS011;3648;50.614;13.830;2023-03-01T02:32:37;21.27;;;15.87;;
7213;SDS011;3648;50.614;13.830;2023-03-01T02:35:06;22.97;;;15.87;;
7213;SDS011;3648;50.614;13.830;2023-03-01T02:37:36;21.87;;;15.87;;
7213;SDS011;3648;50.614;13.830;2023-03-01T02:40:05;22.80;;;16.70;;
7213;SDS011;3648;50.614;13.830;2023-03-01T02:42:39;23.37;;;15.60;;
7213;SDS011;3648;50.614;13.830;2023-03-01T02:45:14;23.03;;;17.33;;
7213;SDS011;3648;50.614;13.830;2023-03-01T02:47:41;23.50;;;16.93;;
7213;SDS011;3648;50.614;13.830;2023-03-01T02:50:14;21.83;;;16.60;;
7213;SDS011;3648;50.614;13.830;2023-03-01T02:52:48;22.07;;;15.87;;
7213;SDS011;3648;50.614;13.830;2023-03-01T02:55:23;23.17;;;17.00;;
7213;SDS011;3648;50.614;13.830;2023-03-01T02:57:50;23.97;;;17.30;;
7213;SDS011;3648;50.614;13.830;2023-03-01T03:00:19;24.97;;;16.27;;
7213;SDS011;3648;50.614;13.830;2023-03-01T03:02:50;22.73;;;16.87;;
7213;SDS011;3648;50.614;13.830;2023-03-01T03:05:19;21.93;;;17.03;;
7213;SDS011;3648;50.614;13.830;2023-03-01T03:07:48;23.50;;;17.10;;
7213;SDS011;3648;50.614;13.830;2023-03-01T03:10:20;24.23;;;16.77;;
7213;SDS011;3648;50.614;13.830;2023-03-01T03:12:49;23.23;;;17.07;;
7213;SDS011;3648;50.614;13.830;2023-03-01T03:15:18;21.47;;;16.30;;
7213;SDS011;3648;50.614;13.830;2023-03-01T03:17:46;24.23;;;17.07;;
7213;SDS011;3648;50.614;13.830;2023-03-01T03:20:15;23.60;;;16.63;;
7213;SDS011;3648;50.614;13.830;2023-03-01T03:22:44;23.50;;;17.13;;
7213;SDS011;3648;50.614;13.830;2023-03-01T03:25:11;19.43;;;16.30;;
7213;SDS011;3648;50.614;13.830;2023-03-01T03:27:39;24.57;;;16.57;;
7213;SDS011;3648;50.614;13.830;2023-03-01T03:30:08;25.63;;;16.40;;
7213;SDS011;3648;50.614;13.830;2023-03-01T03:32:38;26.87;;;17.70;;
7213;SDS011;3648;50.614;13.830;2023-03-01T03:35:07;23.23;;;17.03;;
7213;SDS011;3648;50.614;13.830;2023-03-01T03:37:35;24.03;;;17.47;;
7213;SDS011;3648;50.614;13.830;2023-03-01T03:40:20;23.50;;;16.70;;
7213;SDS011;3648;50.614;13.830;2023-03-01T03:42:47;25.53;;;16.77;;
7213;SDS011;3648;50.614;13.830;2023-03-01T03:45:14;22.47;;;16.90;;
7213;SDS011;3648;50.614;13.830;2023-03-01T03:47:43;24.67;;;17.57;;
7213;SDS011;3648;50.614;13.830;2023-03-01T03:50:11;27.90;;;18.53;;
7213;SDS011;3648;50.614;13.830;2023-03-01T03:52:39;24.07;;;17.93;;
7213;SDS011;3648;50.614;13.830;2023-03-01T03:55:07;27.53;;;19.07;;
7213;SDS011;3648;50.614;13.830;2023-03-01T03:57:36;24.90;;;17.87;;
7213;SDS011;3648;50.614;13.830;2023-03-01T04:00:03;27.23;;;18.97;;
7213;SDS011;3648;50.614;13.830;2023-03-01T04:02:37;27.07;;;18.73;;
7213;SDS011;3648;50.614;13.830;2023-03-01T04:05:06;28.93;;;18.87;;
7213;SDS011;3648;50.614;13.830;2023-03-01T04:07:34;31.60;;;20.53;;
7213;SDS011;3648;50.614;13.830;2023-03-01T04:10:02;27.90;;;19.37;;
7213;SDS011;3648;50.614;13.830;2023-03-01T04:12:29;29.30;;;20.27;;
7213;SDS011;3648;50.614;13.830;2023-03-01T04:14:59;26.00;;;18.87;;
7213;SDS011;3648;50.614;13.830;2023-03-01T04:17:26;26.20;;;18.67;;
7213;SDS011;3648;50.614;13.830;2023-03-01T04:19:53;27.97;;;19.93;;
7213;SDS011;3648;50.614;13.830;2023-03-01T04:22:21;27.17;;;18.90;;
7213;SDS011;3648;50.614;13.830;2023-03-01T04:24:54;26.90;;;19.73;;
7213;SDS011;3648;50.614;13.830;2023-03-01T04:27:21;28.07;;;20.10;;
7213;SDS011;3648;50.614;13.830;2023-03-01T04:29:48;33.53;;;20.87;;
7213;SDS011;3648;50.614;13.830;2023-03-01T04:32:15;30.73;;;20.70;;
7213;SDS011;3648;50.614;13.830;2023-03-01T04:34:43;26.63;;;18.03;;
7213;SDS011;3648;50.614;13.830;2023-03-01T04:37:10;29.47;;;20.77;;
7213;SDS011;3648;50.614;13.830;2023-03-01T04:39:38;27.97;;;19.17;;
7213;SDS011;3648;50.614;13.830;2023-03-01T04:42:10;26.70;;;19.03;;
7213;SDS011;3648;50.614;13.830;2023-03-01T04:44:37;27.50;;;19.23;;
7213;SDS011;3648;50.614;13.830;2023-03-01T04:47:04;28.87;;;20.30;;
7213;SDS011;3648;50.614;13.830;2023-03-01T04:49:31;28.47;;;19.57;;
7213;SDS011;3648;50.614;13.830;2023-03-01T04:51:58;28.03;;;19.80;;
7213;SDS011;3648;50.614;13.830;2023-03-01T04:54:27;29.07;;;21.80;;
7213;SDS011;3648;50.614;13.830;2023-03-01T04:56:55;28.57;;;20.10;;
7213;SDS011;3648;50.614;13.830;2023-03-01T04:59:23;28.67;;;20.50;;
7213;SDS011;3648;50.614;13.830;2023-03-01T05:01:50;28.27;;;20.83;;
7213;SDS011;3648;50.614;13.830;2023-03-01T05:04:20;28.97;;;19.97;;
7213;SDS011;3648;50.614;13.830;2023-03-01T05:06:48;26.30;;;19.50;;
7213;SDS011;3648;50.614;13.830;2023-03-01T05:09:15;29.47;;;19.90;;
7213;SDS011;3648;50.614;13.830;2023-03-01T05:11:42;29.67;;;19.67;;
7213;SDS011;3648;50.614;13.830;2023-03-01T05:14:11;30.77;;;20.50;;
7213;SDS011;3648;50.614;13.830;2023-03-01T05:16:38;32.47;;;21.43;;
7213;SDS011;3648;50.614;13.830;2023-03-01T05:19:04;26.67;;;18.73;;
7213;SDS011;3648;50.614;13.830;2023-03-01T05:21:36;28.83;;;19.23;;
7213;SDS011;3648;50.614;13.830;2023-03-01T05:24:24;25.70;;;17.67;;
7213;SDS011;3648;50.614;13.830;2023-03-01T05:26:51;28.27;;;18.30;;
7213;SDS011;3648;50.614;13.830;2023-03-01T05:29:20;26.57;;;18.80;;
7213;SDS011;3648;50.614;13.830;2023-03-01T05:31:50;27.63;;;18.43;;
7213;SDS011;3648;50.614;13.830;2023-03-01T05:34:18;26.20;;;17.30;;
7213;SDS011;3648;50.614;13.830;2023-03-01T05:36:47;27.63;;;19.13;;
7213;SDS011;3648;50.614;13.830;2023-03-01T05:39:16;26.30;;;18.73;;
7213;SDS011;3648;50.614;13.830;2023-03-01T05:41:43;27.07;;;18.60;;
7213;SDS011;3648;50.614;13.830;2023-03-01T05:44:10;24.50;;;18.50;;
7213;SDS011;3648;50.614;13.830;2023-03-01T05:46:38;28.23;;;19.13;;
7213;SDS011;3648;50.614;13.830;2023-03-01T05:49:05;26.57;;;18.60;;
7213;SDS011;3648;50.614;13.830;2023-03-01T05:51:32;25.93;;;18.27;;
7213;SDS011;3648;50.614;13.830;2023-03-01T05:53:59;26.30;;;19.50;;
7213;SDS011;3648;50.614;13.830;2023-03-01T05:56:26;26.30;;;19.23;;
7213;SDS011;3648;50.614;13.830;2023-03-01T05:58:54;28.07;;;19.73;;
7213;SDS011;3648;50.614;13.830;2023-03-01T06:01:21;29.00;;;19.30;;
7213;SDS011;3648;50.614;13.830;2023-03-01T06:03:49;28.67;;;19.77;;
7213;SDS011;3648;50.614;13.830;2023-03-01T06:06:16;26.87;;;19.00;;
7213;SDS011;3648;50.614;13.830;2023-03-01T06:08:43;29.67;;;18.63;;
7213;SDS011;3648;50.614;13.830;2023-03-01T06:11:10;27.13;;;19.60;;
7213;SDS011;3648;50.614;13.830;2023-03-01T06:13:40;27.13;;;19.57;;
7213;SDS011;3648;50.614;13.830;2023-03-01T06:16:08;28.17;;;20.27;;
7213;SDS011;3648;50.614;13.830;2023-03-01T06:18:35;28.97;;;20.70;;
7213;SDS011;3648;50.614;13.830;2023-03-01T06:21:04;92.77;;;54.90;;
7213;SDS011;3648;50.614;13.830;2023-03-01T06:23:32;72.80;;;44.50;;
7213;SDS011;3648;50.614;13.830;2023-03-01T06:25:59;52.07;;;34.70;;
7213;SDS011;3648;50.614;13.830;2023-03-01T06:28:26;43.83;;;28.93;;
7213;SDS011;3648;50.614;13.830;2023-03-01T06:30:53;34.90;;;23.60;;
7213;SDS011;3648;50.614;13.830;2023-03-01T06:33:20;35.70;;;24.43;;
7213;SDS011;3648;50.614;13.830;2023-03-01T06:35:49;34.23;;;23.10;;
7213;SDS011;3648;50.614;13.830;2023-03-01T06:38:17;34.63;;;23.13;;
7213;SDS011;3648;50.614;13.830;2023-03-01T06:40:44;31.50;;;22.23;;
7213;SDS011;3648;50.614;13.830;2023-03-01T06:43:17;32.53;;;22.40;;
7213;SDS011;3648;50.614;13.830;2023-03-01T06:45:44;30.60;;;22.13;;
7213;SDS011;3648;50.614;13.830;2023-03-01T06:48:11;31.77;;;21.87;;
7213;SDS011;3648;50.614;13.830;2023-03-01T06:50:38;35.90;;;25.57;;
7213;SDS011;3648;50.614;13.830;2023-03-01T06:53:05;39.70;;;27.37;;
7213;SDS011;3648;50.614;13.830;2023-03-01T06:55:33;31.40;;;22.20;;
7213;SDS011;3648;50.614;13.830;2023-03-01T06:58:00;33.63;;;23.97;;
7213;SDS011;3648;50.614;13.830;2023-03-01T07:00:29;29.83;;;22.03;;
7213;SDS011;3648;50.614;13.830;2023-03-01T07:02:57;32.47;;;22.30;;
7213;SDS011;3648;50.614;13.830;2023-03-01T07:05:25;31.37;;;21.40;;
7213;SDS011;3648;50.614;13.830;2023-03-01T07:07:52;27.70;;;20.40;;
7213;SDS011;3648;50.614;13.830;2023-03-01T07:10:20;29.87;;;21.20;;
7213;SDS011;3648;50.614;13.830;2023-03-01T07:12:49;32.03;;;23.10;;
7213;SDS011;3648;50.614;13.830;2023-03-01T07:15:16;31.57;;;22.93;;
7213;SDS011;3648;50.614;13.830;2023-03-01T07:17:43;31.27;;;23.23;;
7213;SDS011;3648;50.614;13.830;2023-03-01T07:20:12;29.50;;;21.87;;
7213;SDS011;3648;50.614;13.830;2023-03-01T07:22:40;29.27;;;20.30;;
7213;SDS011;3648;50.614;13.830;2023-03-01T07:25:08;28.83;;;21.17;;
7213;SDS011;3648;50.614;13.830;2023-03-01T07:27:35;28.37;;;20.00;;
7213;SDS011;3648;50.614;13.830;2023-03-01T07:30:05;28.00;;;20.63;;
7213;SDS011;3648;50.614;13.830;2023-03-01T07:32:33;25.80;;;18.93;;
7213;SDS011;3648;50.614;13.830;2023-03-01T07:35:00;26.37;;;19.30;;
7213;SDS011;3648;50.614;13.830;2023-03-01T07:37:27;25.80;;;18.13;;
7213;SDS011;3648;50.614;13.830;2023-03-01T07:39:54;24.63;;;18.70;;
7213;SDS011;3648;50.614;13.830;2023-03-01T07:42:21;29.03;;;20.50;;
7213;SDS011;3648;50.614;13.830;2023-03-01T07:44:48;23.07;;;18.20;;
7213;SDS011;3648;50.614;13.830;2023-03-01T07:47:16;32.13;;;20.37;;
7213;SDS011;3648;50.614;13.830;2023-03-01T07:49:43;25.17;;;17.93;;
7213;SDS011;3648;50.614;13.830;2023-03-01T07:52:10;27.30;;;19.17;;
7213;SDS011;3648;50.614;13.830;2023-03-01T07:54:37;25.83;;;18.70;;
7213;SDS011;3648;50.614;13.830;2023-03-01T07:57:04;25.60;;;18.10;;
7213;SDS011;3648;50.614;13.830;2023-03-01T07:59:31;23.87;;;18.10;;
7213;SDS011;3648;50.614;13.830;2023-03-01T08:01:58;24.23;;;17.57;;
7213;SDS011;3648;50.614;13.830;2023-03-01T08:04:27;22.83;;;17.70;;
7213;SDS011;3648;50.614;13.830;2023-03-01T08:06:54;24.07;;;17.87;;
7213;SDS011;3648;50.614;13.830;2023-03-01T08:09:21;23.97;;;18.67;;
7213;SDS011;3648;50.614;13.830;2023-03-01T08:11:48;24.17;;;17.57;;
7213;SDS011;3648;50.614;13.830;2023-03-01T08:14:15;23.57;;;18.07;;
7213;SDS011;3648;50.614;13.830;2023-03-01T08:16:42;21.80;;;16.30;;
7213;SDS011;3648;50.614;13.830;2023-03-01T08:19:10;22.17;;;15.93;;
7213;SDS011;3648;50.614;13.830;2023-03-01T08:21:39;24.67;;;18.23;;
7213;SDS011;3648;50.614;13.830;2023-03-01T08:24:07;22.63;;;16.67;;
7213;SDS011;3648;50.614;13.830;2023-03-01T08:26:35;21.73;;;16.07;;
7213;SDS011;3648;50.614;13.830;2023-03-01T08:29:03;22.07;;;15.50;;
7213;SDS011;3648;50.614;13.830;2023-03-01T08:31:30;19.70;;;16.00;;
7213;SDS011;3648;50.614;13.830;2023-03-01T08:34:00;22.83;;;16.83;;
7213;SDS011;3648;50.614;13.830;2023-03-01T08:36:30;22.03;;;16.73;;
7213;SDS011;3648;50.614;13.830;2023-03-01T08:39:00;22.27;;;17.17;;
7213;SDS011;3648;50.614;13.830;2023-03-01T08:41:27;23.53;;;18.17;;
7213;SDS011;3648;50.614;13.830;2023-03-01T08:43:55;21.40;;;17.33;;
7213;SDS011;3648;50.614;13.830;2023-03-01T08:46:24;23.37;;;17.27;;
7213;SDS011;3648;50.614;13.830;2023-03-01T08:48:52;24.37;;;18.70;;
7213;SDS011;3648;50.614;13.830;2023-03-01T08:51:21;25.30;;;18.43;;
7213;SDS011;3648;50.614;13.830;2023-03-01T08:53:49;22.73;;;15.43;;
7213;SDS011;3648;50.614;13.830;2023-03-01T08:56:18;27.80;;;19.17;;
7213;SDS011;3648;50.614;13.830;2023-03-01T08:58:46;23.43;;;18.40;;
7213;SDS011;3648;50.614;13.830;2023-03-01T09:01:15;22.03;;;16.37;;
7213;SDS011;3648;50.614;13.830;2023-03-01T09:03:44;22.37;;;16.77;;
7213;SDS011;3648;50.614;13.830;2023-03-01T09:06:11;22.30;;;16.00;;
7213;SDS011;3648;50.614;13.830;2023-03-01T09:08:39;20.30;;;15.40;;
7213;SDS011;3648;50.614;13.830;2023-03-01T09:11:08;23.50;;;17.40;;
7213;SDS011;3648;50.614;13.830;2023-03-01T09:13:38;35.63;;;26.07;;
7213;SDS011;3648;50.614;13.830;2023-03-01T09:16:06;33.33;;;26.10;;
7213;SDS011;3648;50.614;13.830;2023-03-01T09:18:34;30.33;;;20.83;;
7213;SDS011;3648;50.614;13.830;2023-03-01T09:21:02;22.97;;;17.57;;
7213;SDS011;3648;50.614;13.830;2023-03-01T09:23:32;21.67;;;17.43;;
7213;SDS011;3648;50.614;13.830;2023-03-01T09:26:01;20.57;;;15.77;;
7213;SDS011;3648;50.614;13.830;2023-03-01T09:28:28;20.13;;;16.13;;
7213;SDS011;3648;50.614;13.830;2023-03-01T09:30:58;19.17;;;15.93;;
7213;SDS011;3648;50.614;13.830;2023-03-01T09:33:26;18.90;;;14.77;;
7213;SDS011;3648;50.614;13.830;2023-03-01T09:35:56;16.73;;;14.57;;
7213;SDS011;3648;50.614;13.830;2023-03-01T09:38:23;19.47;;;15.13;;
7213;SDS011;3648;50.614;13.830;2023-03-01T09:40:50;18.70;;;15.23;;
7213;SDS011;3648;50.614;13.830;2023-03-01T09:43:19;17.30;;;14.37;;
7213;SDS011;3648;50.614;13.830;2023-03-01T09:45:52;19.63;;;14.67;;
7213;SDS011;3648;50.614;13.830;2023-03-01T09:48:23;20.20;;;14.90;;
7213;SDS011;3648;50.614;13.830;2023-03-01T09:50:52;21.03;;;14.77;;
7213;SDS011;3648;50.614;13.830;2023-03-01T09:53:20;20.50;;;15.03;;
7213;SDS011;3648;50.614;13.830;2023-03-01T09:55:50;17.73;;;14.40;;
7213;SDS011;3648;50.614;13.830;2023-03-01T09:58:29;19.80;;;15.33;;
7213;SDS011;3648;50.614;13.830;2023-03-01T10:01:06;20.53;;;14.90;;
7213;SDS011;3648;50.614;13.830;2023-03-01T10:03:48;17.27;;;14.57;;
7213;SDS011;3648;50.614;13.830;2023-03-01T10:06:26;17.50;;;14.70;;
7213;SDS011;3648;50.614;13.830;2023-03-01T10:08:54;18.33;;;13.93;;
7213;SDS011;3648;50.614;13.830;2023-03-01T10:11:25;17.80;;;14.60;;
7213;SDS011;3648;50.614;13.830;2023-03-01T10:13:58;18.17;;;14.40;;
7213;SDS011;3648;50.614;13.830;2023-03-01T10:16:32;19.20;;;14.50;;
7213;SDS011;3648;50.614;13.830;2023-03-01T10:19:08;18.80;;;15.77;;
7213;SDS011;3648;50.614;13.830;2023-03-01T10:21:39;17.77;;;14.23;;
7213;SDS011;3648;50.614;13.830;2023-03-01T10:24:11;19.30;;;14.40;;
7213;SDS011;3648;50.614;13.830;2023-03-01T10:26:43;21.30;;;15.83;;
7213;SDS011;3648;50.614;13.830;2023-03-01T10:29:14;21.53;;;16.20;;
7213;SDS011;3648;50.614;13.830;2023-03-01T10:31:42;18.97;;;14.83;;
7213;SDS011;3648;50.614;13.830;2023-03-01T10:34:14;19.23;;;14.50;;
7213;SDS011;3648;50.614;13.830;2023-03-01T10:36:43;20.77;;;14.97;;
7213;SDS011;3648;50.614;13.830;2023-03-01T10:39:14;18.00;;;14.20;;
7213;SDS011;3648;50.614;13.830;2023-03-01T10:44:40;19.40;;;14.10;;
7213;SDS011;3648;50.614;13.830;2023-03-01T10:47:13;18.73;;;14.53;;
7213;SDS011;3648;50.614;13.830;2023-03-01T10:49:53;19.10;;;14.80;;
7213;SDS011;3648;50.614;13.830;2023-03-01T10:52:27;23.20;;;14.13;;
7213;SDS011;3648;50.614;13.830;2023-03-01T10:54:57;18.00;;;14.50;;
7213;SDS011;3648;50.614;13.830;2023-03-01T10:57:28;19.87;;;14.53;;
7213;SDS011;3648;50.614;13.830;2023-03-01T11:00:05;15.33;;;13.43;;
7213;SDS011;3648;50.614;13.830;2023-03-01T11:02:47;17.90;;;13.87;;
7213;SDS011;3648;50.614;13.830;2023-03-01T11:05:21;18.13;;;14.73;;
7213;SDS011;3648;50.614;13.830;2023-03-01T11:07:50;17.47;;;14.33;;
7213;SDS011;3648;50.614;13.830;2023-03-01T11:10:19;17.70;;;13.77;;
7213;SDS011;3648;50.614;13.830;2023-03-01T11:12:48;16.00;;;13.07;;
7213;SDS011;3648;50.614;13.830;2023-03-01T11:15:20;16.17;;;13.50;;
7213;SDS011;3648;50.614;13.830;2023-03-01T11:17:50;15.73;;;13.33;;
7213;SDS011;3648;50.614;13.830;2023-03-01T11:20:24;18.63;;;14.53;;
7213;SDS011;3648;50.614;13.830;2023-03-01T11:22:54;16.60;;;14.23;;
7213;SDS011;3648;50.614;13.830;2023-03-01T11:25:24;16.20;;;13.63;;
7213;SDS011;3648;50.614;13.830;2023-03-01T11:27:53;16.43;;;13.23;;
7213;SDS011;3648;50.614;13.830;2023-03-01T11:30:23;15.97;;;13.23;;
7213;SDS011;3648;50.614;13.830;2023-03-01T11:33:05;17.27;;;13.80;;
7213;SDS011;3648;50.614;13.830;2023-03-01T11:35:43;16.23;;;12.90;;
7213;SDS011;3648;50.614;13.830;2023-03-01T11:38:16;16.80;;;14.27;;
7213;SDS011;3648;50.614;13.830;2023-03-01T11:40:49;16.13;;;12.37;;
7213;SDS011;3648;50.614;13.830;2023-03-01T11:43:22;16.10;;;14.37;;
7213;SDS011;3648;50.614;13.830;2023-03-01T11:49:03;17.40;;;13.67;;
7213;SDS011;3648;50.614;13.830;2023-03-01T11:51:46;15.17;;;12.50;;
7213;SDS011;3648;50.614;13.830;2023-03-01T11:54:28;15.30;;;13.07;;
7213;SDS011;3648;50.614;13.830;2023-03-01T11:57:04;17.63;;;13.27;;
7213;SDS011;3648;50.614;13.830;2023-03-01T11:59:51;15.27;;;12.90;;
7213;SDS011;3648;50.614;13.830;2023-03-01T12:02:35;15.10;;;12.53;;
7213;SDS011;3648;50.614;13.830;2023-03-01T12:08:17;16.73;;;12.60;;
7213;SDS011;3648;50.614;13.830;2023-03-01T12:10:52;15.20;;;12.43;;
7213;SDS011;3648;50.614;13.830;2023-03-01T12:13:40;15.17;;;12.77;;
7213;SDS011;3648;50.614;13.830;2023-03-01T12:16:24;16.00;;;12.03;;
7213;SDS011;3648;50.614;13.830;2023-03-01T12:19:02;14.77;;;12.37;;
7213;SDS011;3648;50.614;13.830;2023-03-01T12:21:41;14.20;;;12.07;;
7213;SDS011;3648;50.614;13.830;2023-03-01T12:24:38;15.00;;;12.20;;
7213;SDS011;3648;50.614;13.830;2023-03-01T12:27:33;17.40;;;12.83;;
7213;SDS011;3648;50.614;13.830;2023-03-01T12:30:18;15.40;;;12.83;;
7213;SDS011;3648;50.614;13.830;2023-03-01T12:32:56;16.67;;;14.60;;
7213;SDS011;3648;50.614;13.830;2023-03-01T12:35:36;14.87;;;12.67;;
7213;SDS011;3648;50.614;13.830;2023-03-01T12:38:32;18.23;;;13.90;;
7213;SDS011;3648;50.614;13.830;2023-03-01T12:44:21;18.13;;;12.90;;
7213;SDS011;3648;50.614;13.830;2023-03-01T12:47:01;16.43;;;12.13;;
7213;SDS011;3648;50.614;13.830;2023-03-01T12:49:34;16.47;;;13.00;;
7213;SDS011;3648;50.614;13.830;2023-03-01T12:52:09;15.47;;;12.80;;
7213;SDS011;3648;50.614;13.830;2023-03-01T12:54:38;15.53;;;12.70;;
7213;SDS011;3648;50.614;13.830;2023-03-01T12:57:07;16.67;;;12.83;;
7213;SDS011;3648;50.614;13.830;2023-03-01T12:59:42;13.37;;;11.77;;
7213;SDS011;3648;50.614;13.830;2023-03-01T13:02:19;14.97;;;11.97;;
7213;SDS011;3648;50.614;13.830;2023-03-01T13:04:53;13.87;;;11.27;;
7213;SDS011;3648;50.614;13.830;2023-03-01T13:07:29;14.57;;;11.90;;
7213;SDS011;3648;50.614;13.830;2023-03-01T13:10:05;13.67;;;12.10;;
7213;SDS011;3648;50.614;13.830;2023-03-01T13:12:46;15.57;;;12.67;;
7213;SDS011;3648;50.614;13.830;2023-03-01T13:15:26;15.10;;;12.43;;
7213;SDS011;3648;50.614;13.830;2023-03-01T13:17:54;13.47;;;11.37;;
7213;SDS011;3648;50.614;13.830;2023-03-01T13:20:23;16.43;;;11.67;;
7213;SDS011;3648;50.614;13.830;2023-03-01T13:23:00;12.63;;;11.13;;
7213;SDS011;3648;50.614;13.830;2023-03-01T13:25:33;13.80;;;11.07;;
7213;SDS011;3648;50.614;13.830;2023-03-01T13:31:07;11.83;;;10.53;;
7213;SDS011;3648;50.614;13.830;2023-03-01T13:33:39;13.23;;;11.40;;
7213;SDS011;3648;50.614;13.830;2023-03-01T13:36:09;14.17;;;11.10;;
7213;SDS011;3648;50.614;13.830;2023-03-01T13:38:48;12.13;;;10.50;;
7213;SDS011;3648;50.614;13.830;2023-03-01T13:44:17;14.10;;;10.73;;
7213;SDS011;3648;50.614;13.830;2023-03-01T13:46:53;12.93;;;9.97;;
7213;SDS011;3648;50.614;13.830;2023-03-01T13:49:23;11.27;;;9.17;;
7213;SDS011;3648;50.614;13.830;2023-03-01T13:51:55;11.10;;;9.33;;
7213;SDS011;3648;50.614;13.830;2023-03-01T13:54:25;11.30;;;8.40;;
7213;SDS011;3648;50.614;13.830;2023-03-01T13:56:55;10.87;;;8.37;;
7213;SDS011;3648;50.614;13.830;2023-03-01T13:59:24;10.37;;;8.47;;
7213;SDS011;3648;50.614;13.830;2023-03-01T14:01:53;9.60;;;8.53;;
7213;SDS011;3648;50.614;13.830;2023-03-01T14:04:22;10.73;;;8.47;;
7213;SDS011;3648;50.614;13.830;2023-03-01T14:06:50;10.10;;;7.83;;
7213;SDS011;3648;50.614;13.830;2023-03-01T14:09:18;10.00;;;7.70;;
7213;SDS011;3648;50.614;13.830;2023-03-01T14:14:54;8.93;;;6.97;;
7213;SDS011;3648;50.614;13.830;2023-03-01T14:20:19;10.80;;;8.67;;
7213;SDS011;3648;50.614;13.830;2023-03-01T14:22:47;9.63;;;7.43;;
7213;SDS011;3648;50.614;13.830;2023-03-01T14:25:22;10.60;;;8.03;;
7213;SDS011;3648;50.614;13.830;2023-03-01T14:27:51;10.17;;;7.83;;
7213;SDS011;3648;50.614;13.830;2023-03-01T14:30:22;9.83;;;7.73;;
7213;SDS011;3648;50.614;13.830;2023-03-01T14:32:54;9.90;;;7.77;;
7213;SDS011;3648;50.614;13.830;2023-03-01T14:35:23;8.90;;;7.73;;
7213;SDS011;3648;50.614;13.830;2023-03-01T14:37:52;12.27;;;8.57;;
7213;SDS011;3648;50.614;13.830;2023-03-01T14:40:21;10.47;;;8.47;;
7213;SDS011;3648;50.614;13.830;2023-03-01T14:42:50;10.00;;;8.80;;
7213;SDS011;3648;50.614;13.830;2023-03-01T14:45:18;10.53;;;8.80;;
7213;SDS011;3648;50.614;13.830;2023-03-01T14:47:46;11.87;;;10.33;;
7213;SDS011;3648;50.614;13.830;2023-03-01T14:50:19;11.90;;;9.73;;
7213;SDS011;3648;50.614;13.830;2023-03-01T14:52:50;12.20;;;9.67;;
7213;SDS011;3648;50.614;13.830;2023-03-01T14:55:21;12.27;;;9.70;;
7213;SDS011;3648;50.614;13.830;2023-03-01T14:57:51;12.90;;;9.90;;
7213;SDS011;3648;50.614;13.830;2023-03-01T15:00:20;15.73;;;9.90;;
7213;SDS011;3648;50.614;13.830;2023-03-01T15:02:49;10.43;;;9.33;;
7213;SDS011;3648;50.614;13.830;2023-03-01T15:05:22;11.73;;;9.50;;
7213;SDS011;3648;50.614;13.830;2023-03-01T15:07:53;13.27;;;9.87;;
7213;SDS011;3648;50.614;13.830;2023-03-01T15:10:22;11.47;;;10.20;;
7213;SDS011;3648;50.614;13.830;2023-03-01T15:12:50;13.77;;;10.20;;
7213;SDS011;3648;50.614;13.830;2023-03-01T15:18:06;12.27;;;10.23;;
7213;SDS011;3648;50.614;13.830;2023-03-01T15:20:43;12.73;;;10.87;;